Latest Weather Observations for Kiama

IDN60801

Issued at 5:05 pm EST Wednesday 17 September 2014 (issued every 30 minutes, with the page automatically refreshed every 10 minutes)

About weather observations | Map of weather stations | Latest weather observations for NSW | Other Formats
Station Details ID: 068242 Name: KIAMA (BOMBO HEADLAND) Lat: -34.65 Lon: 150.86 Height: 15.5 m
Data from the previous 72 hours. | See also: Recent months at Kiama
Date/Time
EST
Temp
°C
App
Temp
°C
Dew
Point
Rel
Hum
%
Delta-T
°C
Wind Press
QNH
hPa
Press
MSL
hPa
Rain
since 9 am
mm
Dir
 
Spd
km/h
Gust
km/h
Spd
kts
Gust
kts
17/05:00pm 18.6 12.4 2.4 34 7.4 W 24 43 13 23 - - 0.0
17/04:30pm 19.0 11.9 1.5 31 7.9 W 28 54 15 29 - - 0.0
17/04:10pm 19.0 11.5 1.5 31 7.9 W 30 48 16 26 - - 0.0
17/04:00pm 19.1 10.3 1.1 30 8.1 W 37 54 20 29 - - 0.0
17/03:35pm 19.4 10.9 0.9 29 8.3 W 35 56 19 30 - - 0.0
17/03:30pm 19.3 10.0 0.8 29 8.3 W 39 57 21 31 - - 0.0
17/03:11pm 19.6 12.1 1.1 29 8.3 W 30 48 16 26 - - 0.0
17/03:00pm 19.6 11.7 1.1 29 8.3 W 32 48 17 26 - - 0.0
17/02:30pm 19.6 11.6 1.6 30 8.2 WSW 33 52 18 28 - - 0.0
17/02:23pm 19.3 12.1 0.8 29 8.3 WSW 28 52 15 28 - - 0.0
17/02:00pm 19.8 12.8 1.7 30 8.3 W 28 44 15 24 - - 0.0
17/01:30pm 20.6 16.4 3.8 33 8.0 W 15 32 8 17 - - 0.0
17/01:00pm 19.4 13.4 3.2 34 7.6 WSW 24 37 13 20 - - 0.0
17/12:30pm 19.4 12.7 3.6 35 7.5 SW 28 41 15 22 - - 0.0
17/12:00pm 19.5 12.7 3.2 34 7.6 WSW 28 44 15 24 - - 0.0
17/11:30am 19.6 13.6 3.3 34 7.7 W 24 39 13 21 - - 0.0
17/11:04am 19.3 12.0 2.2 32 7.8 W 30 48 16 26 - - 0.0
17/11:00am 19.2 11.4 2.6 33 7.7 W 33 48 18 26 - - 0.0
17/10:44am 18.9 10.9 1.4 31 7.9 W 33 54 18 29 - - 0.0
17/10:30am 18.9 11.0 2.3 33 7.6 W 33 48 18 26 - - 0.0
17/10:02am 18.3 9.5 1.3 32 7.6 W 37 57 20 31 - - 0.0
17/10:00am 18.4 9.2 1.4 32 7.6 W 39 56 21 30 - - 0.0
17/09:30am 18.5 11.3 2.8 35 7.2 W 30 43 16 23 - - 0.0
17/09:16am 18.1 10.4 2.4 35 7.2 W 32 56 17 30 - - 0.0
17/09:00am 17.9 11.8 3.0 37 6.9 W 24 35 13 19 - - 0.0
17/08:30am 17.3 11.7 5.6 46 5.7 W 24 35 13 19 - - 0.0
17/08:00am 16.7 11.6 5.9 49 5.2 W 22 35 12 19 - - 0.0
17/07:30am 16.3 11.6 6.2 51 4.9 W 20 35 11 19 - - 0.0
17/07:00am 15.8 12.1 6.3 53 4.6 W 15 26 8 14 - - 0.0
17/06:30am 15.5 11.5 6.5 55 4.4 WNW 17 24 9 13 - - 0.0
17/06:00am 15.3 12.4 6.6 56 4.2 NW 11 24 6 13 - - 0.0
17/05:30am 15.5 11.2 6.8 56 4.3 W 19 35 10 19 - - 0.0
17/05:00am 15.7 11.4 7.0 56 4.3 W 19 33 10 18 - - 0.0
17/04:30am 16.1 12.2 7.3 56 4.4 WSW 17 35 9 19 - - 0.0
17/04:00am 16.2 11.5 7.7 57 4.3 W 22 35 12 19 - - 0.0
17/03:30am 15.8 12.8 7.8 59 4.0 W 13 26 7 14 - - 0.0
17/03:00am 15.7 11.9 7.7 59 4.0 W 17 26 9 14 - - 0.0
17/02:30am 15.9 12.2 7.9 59 4.0 W 17 26 9 14 - - 0.0
17/02:00am 16.1 11.0 7.8 58 4.2 W 24 39 13 21 - - 0.0
17/01:30am 16.1 9.3 7.8 58 4.2 W 33 52 18 28 - - 0.0
17/01:17am 16.1 9.5 7.8 58 4.2 W 32 56 17 30 - - 0.0
17/01:00am 16.2 10.4 7.9 58 4.2 WSW 28 41 15 22 - - 0.0
17/12:30am 16.3 9.5 7.8 57 4.3 WSW 33 50 18 27 - - 0.0
17/12:00am 16.4 10.1 7.3 55 4.5 WSW 30 48 16 26 - - 0.0
 
Date/Time
EST
Temp
°C
App
Temp
°C
Dew
Point
Rel
Hum
%
Delta-T
°C
Wind Press
QNH
hPa
Press
MSL
hPa
Rain
since 9 am
mm
Dir
 
Spd
km/h
Gust
km/h
Spd
kts
Gust
kts
16/11:30pm 16.5 10.5 7.2 54 4.6 W 28 46 15 25 - - 0.0
16/11:00pm 16.8 9.8 6.9 52 4.9 W 33 54 18 29 - - 0.0
16/10:30pm 16.7 10.0 7.4 54 4.6 W 32 52 17 28 - - 0.0
16/10:13pm 16.8 10.9 7.7 55 4.6 W 28 52 15 28 - - 0.0
16/10:00pm 16.8 12.7 7.7 55 4.6 W 19 33 10 18 - - 0.0
16/09:30pm 16.5 14.6 7.4 55 4.5 WNW 7 19 4 10 - - 0.0
16/09:00pm 16.6 15.2 7.3 54 4.6 WNW 4 13 2 7 - - 0.0
16/08:30pm 16.3 15.3 7.3 55 4.5 NNW 2 9 1 5 - - 0.0
16/08:00pm 16.9 14.6 7.3 53 4.8 NW 9 26 5 14 - - 0.0
16/07:30pm 16.7 14.1 7.9 56 4.4 N 11 15 6 8 - - 0.0
16/07:00pm 17.2 15.0 7.8 54 4.8 N 9 15 5 8 - - 0.0
16/06:30pm 17.6 14.5 7.1 50 5.3 NW 13 22 7 12 - - 0.0
16/06:00pm 18.4 14.8 6.9 47 5.8 WNW 15 28 8 15 - - 0.0
16/05:30pm 19.5 14.2 6.6 43 6.5 WNW 24 37 13 20 - - 0.0
16/05:00pm 20.6 16.0 5.8 38 7.4 WNW 19 33 10 18 - - 0.0
16/04:30pm 21.6 17.3 5.1 34 8.2 WNW 17 35 9 19 - - 0.0
16/04:00pm 22.2 17.9 5.2 33 8.5 WNW 17 28 9 15 - - 0.0
16/03:30pm 20.2 20.1 13.9 67 3.6 N 7 11 4 6 - - 0.0
16/03:00pm 18.4 15.9 14.1 76 2.5 N 20 37 11 20 - - 0.0
16/02:30pm 19.4 16.9 14.2 72 3.0 NNE 20 33 11 18 - - 0.0
16/02:00pm 20.1 16.8 14.9 72 3.0 NNE 26 39 14 21 - - 0.0
16/01:30pm 20.3 18.3 15.5 74 2.8 NNE 20 30 11 16 - - 0.0
16/01:00pm 18.9 16.5 14.4 75 2.6 NNE 20 28 11 15 - - 0.0
16/12:30pm 19.4 17.5 14.2 72 3.0 NNE 17 24 9 13 - - 0.0
16/12:00pm 19.6 19.1 14.8 74 2.8 N 11 17 6 9 - - 0.0
16/11:30am 19.2 17.9 14.9 76 2.5 NNE 15 22 8 12 - - 0.0
16/11:00am 19.1 17.2 15.2 78 2.3 N 19 24 10 13 - - 0.0
16/10:30am 18.1 16.2 14.2 78 2.2 NNE 17 26 9 14 - - 0.0
16/10:00am 18.4 16.1 14.1 76 2.5 N 19 28 10 15 - - 0.0
16/09:30am 18.2 17.4 14.1 77 2.4 N 11 19 6 10 - - 0.0
16/09:00am 18.1 15.6 14.0 77 2.3 N 20 33 11 18 - - 0.2
16/08:30am 18.2 17.2 14.7 80 2.0 N 13 22 7 12 - - 0.2
16/08:00am 16.6 16.1 13.7 83 1.6 NNW 9 15 5 8 - - 0.2
16/07:30am 15.9 15.6 13.2 84 1.5 NNW 7 13 4 7 - - 0.2
16/07:00am 15.3 15.0 12.6 84 1.5 N 6 7 3 4 - - 0.2
16/06:30am 14.9 14.8 12.0 83 1.6 N 4 7 2 4 - - 0.2
16/06:00am 15.2 13.8 12.3 83 1.6 WNW 11 15 6 8 - - 0.2
16/05:30am 15.1 13.7 12.2 83 1.6 WNW 11 15 6 8 - - 0.2
16/05:00am 15.3 14.7 12.4 83 1.6 N 7 13 4 7 - - 0.2
16/04:30am 15.3 14.8 12.6 84 1.5 N 7 13 4 7 - - 0.2
16/04:00am 15.0 14.4 12.3 84 1.5 NW 7 13 4 7 - - 0.2
16/03:30am 15.2 14.3 12.5 84 1.5 N 9 13 5 7 - - 0.2
16/03:00am 15.1 14.7 12.4 84 1.5 NNW 6 9 3 5 - - 0.2
16/02:30am 15.2 14.8 12.5 84 1.5 NNW 6 9 3 5 - - 0.2
16/02:00am 15.2 15.2 12.5 84 1.5 NNW 4 7 2 4 - - 0.2
16/01:30am 15.4 15.0 12.5 83 1.6 N 6 7 3 4 - - 0.2
16/01:00am 15.5 15.2 12.6 83 1.6 N 6 9 3 5 - - 0.2
16/12:30am 15.2 14.5 12.0 81 1.7 NW 7 9 4 5 - - 0.2
16/12:00am 15.4 14.7 11.4 77 2.1 NW 6 9 3 5 - - 0.0
 
Date/Time
EST
Temp
°C
App
Temp
°C
Dew
Point
Rel
Hum
%
Delta-T
°C
Wind Press
QNH
hPa
Press
MSL
hPa
Rain
since 9 am
mm
Dir
 
Spd
km/h
Gust
km/h
Spd
kts
Gust
kts
15/11:30pm 15.8 14.5 11.4 75 2.4 NNW 9 11 5 6 - - 0.0
15/11:00pm 16.1 15.2 11.5 74 2.5 NNW 7 11 4 6 - - 0.0
15/10:30pm 16.2 15.4 11.6 74 2.5 NNW 7 11 4 6 - - 0.0
15/10:00pm 16.4 15.6 11.6 73 2.6 NNW 7 11 4 6 - - 0.0
15/09:30pm 16.6 15.8 11.7 73 2.7 NNW 7 11 4 6 - - 0.0
15/09:00pm 16.9 15.0 11.8 72 2.8 N 13 28 7 15 - - 0.0
15/08:30pm 17.2 14.6 12.1 72 2.8 N 17 26 9 14 - - 0.0
15/08:00pm 17.2 14.6 12.1 72 2.8 N 17 24 9 13 - - 0.0
15/07:30pm 17.1 14.4 11.8 71 2.9 NNE 17 22 9 12 - - 0.0
15/07:00pm 17.1 14.5 12.0 72 2.8 N 17 24 9 13 - - 0.0
15/06:30pm 16.9 14.6 11.6 71 2.9 N 15 20 8 11 - - 0.0
15/06:00pm 16.9 14.9 11.4 70 3.0 NNE 13 19 7 10 - - 0.0
15/05:30pm 17.1 14.3 11.4 69 3.1 NNE 17 22 9 12 - - 0.0
15/05:00pm 17.4 14.9 11.2 67 3.4 NNE 15 20 8 11 - - 0.0
15/04:30pm 17.7 15.3 11.3 66 3.5 NNE 15 19 8 10 - - 0.0
15/04:00pm 17.9 15.7 10.8 63 3.8 NNE 13 19 7 10 - - 0.0
15/03:30pm 19.0 16.6 11.3 61 4.2 NE 15 19 8 10 - - 0.0
15/03:00pm 19.2 16.8 11.3 60 4.3 NE 15 17 8 9 - - 0.0
15/02:30pm 19.2 16.8 11.3 60 4.3 NE 15 19 8 10 - - 0.0
15/02:00pm 19.5 18.0 11.8 61 4.3 NE 11 15 6 8 - - 0.0
15/01:30pm 19.9 18.9 12.4 62 4.2 NE 9 15 5 8 - - 0.0
15/01:00pm 19.7 18.3 12.2 62 4.2 NE 11 17 6 9 - - 0.0
15/12:30pm 19.6 18.1 11.9 61 4.3 NE 11 17 6 9 - - 0.0
15/12:00pm 19.7 18.8 12.5 63 4.0 ENE 9 15 5 8 - - 0.0
15/11:30am 19.1 17.4 12.4 65 3.7 ENE 13 17 7 9 - - 0.0
15/11:00am 19.1 17.7 12.1 64 3.9 ENE 11 17 6 9 - - 0.0
15/10:30am 19.0 18.0 12.3 65 3.7 ENE 9 13 5 7 - - 0.0
15/10:00am 18.7 17.8 12.5 67 3.5 ENE 9 13 5 7 - - 0.0
15/09:30am 17.9 17.1 11.7 67 3.4 ENE 7 11 4 6 - - 0.0
15/09:00am 18.7 18.2 12.2 66 3.6 NE 6 7 3 4 - - 0.0
15/08:30am 17.3 17.1 11.8 70 3.0 N 4 6 2 3 - - 0.0
15/08:00am 15.9 16.2 12.1 78 2.1 WSW 2 4 1 2 - - 0.0
15/07:30am 15.3 14.8 12.1 81 1.7 W 6 7 3 4 - - 0.0
15/07:00am 13.5 12.4 10.5 82 1.6 W 7 11 4 6 - - 0.0
15/06:30am 13.6 12.6 11.0 84 1.4 W 7 11 4 6 - - 0.0
15/06:00am 13.0 11.5 10.4 84 1.3 W 9 11 5 6 - - 0.0
15/05:30am 12.9 11.3 10.1 83 1.4 W 9 13 5 7 - - 0.0
15/05:00am 13.1 12.1 10.3 83 1.5 WSW 6 7 3 4 - - 0.0
15/04:30am 13.6 12.7 10.6 82 1.6 W 6 7 3 4 - - 0.0
15/04:00am 14.1 13.4 11.3 83 1.5 WSW 6 7 3 4 - - 0.0
15/03:30am 13.8 13.0 11.1 84 1.4 WSW 6 7 3 4 - - 0.0
15/03:00am 13.1 12.2 10.5 84 1.4 W 6 7 3 4 - - 0.0
15/02:30am 13.4 12.3 10.6 83 1.5 W 7 9 4 5 - - 0.0
15/02:00am 13.4 12.4 10.4 82 1.6 SW 6 9 3 5 - - 0.0
15/01:30am 13.6 12.6 10.4 81 1.7 WSW 6 7 3 4 - - 0.0
15/01:00am 13.9 13.0 10.5 80 1.8 WSW 6 7 3 4 - - 0.0
15/12:30am 14.9 14.0 11.5 80 1.8 WSW 7 7 4 4 - - 0.0
15/12:00am 15.3 14.6 11.9 80 1.8 SW 7 9 4 5 - - 0.0
 
Date/Time
EST
Temp
°C
App
Temp
°C
Dew
Point
Rel
Hum
%
Delta-T
°C
Wind Press
QNH
hPa
Press
MSL
hPa
Rain
since 9 am
mm
Dir
 
Spd
km/h
Gust
km/h
Spd
kts
Gust
kts
14/11:30pm 14.7 13.8 11.3 80 1.8 SW 7 9 4 5 - - 0.0
14/11:00pm 14.9 14.0 11.5 80 1.8 SW 7 13 4 7 - - 0.0
14/10:30pm 15.6 14.6 12.2 80 1.9 SSW 9 11 5 6 - - 0.0
14/10:00pm 15.7 14.7 12.3 80 1.9 SSW 9 13 5 7 - - 0.0
14/09:30pm 15.7 14.0 12.5 81 1.8 SSW 13 17 7 9 - - 0.0
14/09:00pm 15.3 13.9 12.2 82 1.7 SW 11 15 6 8 - - 0.0
14/08:30pm 15.4 14.0 12.3 82 1.7 SSW 11 15 6 8 - - 0.0
14/08:00pm 15.7 13.7 12.6 82 1.7 SSW 15 19 8 10 - - 0.0
14/07:30pm 15.9 13.9 12.8 82 1.7 SSW 15 19 8 10 - - 0.0
14/07:00pm 16.3 13.4 13.0 81 1.8 S 20 24 11 13 - - 0.0
14/06:30pm 16.2 13.3 12.9 81 1.8 S 20 24 11 13 - - 0.0
14/06:00pm 16.3 13.0 12.8 80 1.9 S 22 32 12 17 - - 0.0
14/05:30pm 16.3 12.5 12.5 78 2.1 S 24 32 13 17 - - 0.0

Other Formats:

Comma delimited format used in spreadsheet applications
http://www.bom.gov.au/fwo/IDN60801/IDN60801.95749.axf

JavaScript Object Notation format (JSON) in row-major order
http://www.bom.gov.au/fwo/IDN60801/IDN60801.95749.json